Philip, SD

9:53 AM MDT on September 16, 2014 (GMT -0600)
Ellsworth Air Force Base | Change Station
CLOSE
Current Station
Airport
Location: Ellsworth AFB,
Elevation: 3278 ft
Nearby Weather Stations

Elev 3278 ft 44.15 °N, 103.10 °W | Updated 55 minutes ago

Clear
Clear
60 °F
Feels Like 60 °F
N
2
Wind Variable Wind from NW

Today
High -- | Low -- °F
--% Chance of Precip.
Yesterday
High -- | Low -- °F
Precip. -- in
6:27 AM 6:55 PM
Last Quarter, 44% visible
Pressure 30.02 in
Visibility 10.0 miles
Clouds Clear
Dew Point 47 °F
Humidity 61%
Rainfall 0.00 in
Snow Depth 0 in
UV 2 out of 12
Pollen 5.80 out of 12
Air Quality Not available.
Flu Activity Not available.
METAR KRCA 161458Z AUTO 31002KT 10SM CLR 16/08 A3003 RMK AO2 SLP166 T01580083 50002 $

More Conditions Fewer Conditions

Pressure 30.02 in
Visibility 10.0 miles
Clouds Clear
Dew Point 47 °F
Humidity 61%
Rainfall 0.00 in
Snow Depth 0 in
UV 2 out of 12
Pollen 5.80 out of 12
Air Quality Not available.
Flu Activity Not available.
METAR KRCA 161458Z AUTO 31002KT 10SM CLR 16/08 A3003 RMK AO2 SLP166 T01580083 50002 $

More Conditions Fewer Conditions

10-Day Weather Forecast

Almanac

Astronomy

Sep. 16, 2014 Rise Set
Actual Time 6:27 AM MDT 6:55 PM MDT
Civil Twilight 5:58 AM MDT 7:24 PM MDT
Nautical Twilight 5:23 AM MDT 7:58 PM MDT
Astronomical Twilight 4:48 AM MDT 8:33 PM MDT
Moon No Moon Rise 2:29 PM MDT
Length of Visible Light 13h 26m
Length of Day
12h 28m
Tomorrow will be 3m 0s shorter.
Last Quarter, 44% of the Moon is Illuminated
Today
Last Quarter
Sep 24
New
Oct 1
First Quarter
Oct 8
Full
Oct 15
Last Quarter

Today's Extremes

State Highs State Lows

Community

WunderPhotos

Upload Photos

1,753,813 photos uploaded!

Nearby

Snow Depth

Station Depth Elevation
Blind Park 0 in 6890 ft

Earthquake Activity

City Distance Mag. Time & Date
No recent earthquake activity has been reported nearby.
Minimum magnitude displayed is 2.5.

Coastal Water Temperatures

Place Temperature
No Stations Reporting

Nearby Weather Stations